Αρχική σελίδα
METAR-TAF:

METAR-TAF

Αεροδρόμια :

Βικτώρια, Μαέ, Σεϋχέλλες

γεωγραφικό πλάτος: 04-40S, γεωγραφικό μήκος: 055-31E, υψόμετρο: 3 μ

Παρών καιρός

Η αναφορά έγινε 16 λεπτά πριν, στις 03:00 UTC
Άνεμος 2 kt από ΝΔ
Θερμοκρασία 27°C
Υγρασία 84%
Πίεση 1011 hPa
Ορατότητα 10 χλμ και άνω
Λίγα νέφη σε ύψος 2500 πόδια

METAR: FSIA 200300Z 22002KT 9999 FEW025 27/24 Q1011 NOSIG

Χρόνος: 07:16 (03:16 UTC)

Πρόγνωση Καιρού

Η αναφορά έγινε 4 ώρες και 9 λεπτά πριν, στις 23:07 UTC
Η πρόγνωση ισχύει από τις 20 στις 00 UTC έως τις 20 στις 24 UTC
Άνεμος 4 kt από μεταβλητές κατευθύνσεις
Ορατότητα 10 χλμ και άνω
Διάσπαρτα νέφη σε ύψος 2400 πόδια

TAF: FSIA 192307Z 2000/2024 VRB04KT 9999 SCT024

Μετεωρολογικές αναφορές και προγνώσεις για περισσότερα από 4000 αεροδρόμια (δελτία METAR και TAF).

Οι διαθέσιμοι σταθμοί απεικονίζονται στο χάρτη με κίτρινες και κόκκινες κουκκίδες.

Μετακινήστε το ποντίκι πάνω από τις κουκκίδες για να δείτε το όνομα του σταθμού.

Στη συνέχεια, κάντε κλικ για να δείτε τις μετεωρολογικές αναφορές και τις προγνώσεις καιρού.

Για να αλλάξετε το χάρτη: κάντε κλικ στα πράσινα κουμπιά με τον μαύρο σταυρό για να ζουμάρετε, στο πράσινο κουμπί με την παύλα για να αφαιρέσετε το ζουμ ή στα πράσινα βέλη για να αντιπαραβάλλετε χάρτες.


METAR-TAF: